Main page
METAR-TAF:

METAR-TAF

Airports :

Jacinto Lara International Airport

Barquisimeto, Venezuela

latitude: 10-04N, longitude: 069-19W, elevation: 613 m

Current weather observation

The report was made 42 minutes ago, at 06:02 UTC
Temperature
Pressure

METAR: SVBM 100602Z AUTO NIL

Time: 02:44 (06:44 UTC)

Forecast

The report was made 9 hours and 14 minutes ago, at 21:30 UTC
Forecast valid from 09 at 00 UTC to 10 at 00 UTC
Wind 8 kt from the Southeast
Visibility: 7000 m
Few clouds at a height of 1600 ft
in the vicinity, mist
Becoming
from 09 at 04 UTC to 09 at 08 UTC
Wind 7 kt from the East/Southeast
Visibility: 8000 m
Scattered clouds at a height of 1300 ft
mist

TAF: SVBM 082130Z 0900/1000 13008KT 7000 VCBR FEW016 TX33/0918Z TN22/1008Z BECMG 0904/0908Z 11007KT 8000 BR SCT013

Weather observations and forecasts of more than 4000 airports (METAR and TAF reports).

The available stations are represented by yellow and red dots on the map.

Hover mouse over dot to see the name of the station.

Then click to see weather observations and forecasts.

To change the map : click on the green buttons with a black cross to zoom in, on the green button with a dash to zoom out, or on the green arrows for adjacent maps.


METAR-TAF: